sensor_id;sensor_type;location;lat;lon;timestamp;pressure;altitude;pressure_sealevel;temperature;humidity
22311;BME280;11323;49.610;11.016;2023-07-08T00:03:37;98393.06;;;24.57;nan
22311;BME280;11323;49.610;11.016;2023-07-08T00:08:37;98384.47;;;24.55;nan
22311;BME280;11323;49.610;11.016;2023-07-08T00:13:38;98374.31;;;24.51;nan
22311;BME280;11323;49.610;11.016;2023-07-08T00:18:38;98381.25;;;24.52;nan
22311;BME280;11323;49.610;11.016;2023-07-08T00:23:39;98381.72;;;24.49;nan
22311;BME280;11323;49.610;11.016;2023-07-08T00:28:39;98389.69;;;24.49;nan
22311;BME280;11323;49.610;11.016;2023-07-08T00:33:39;98381.81;;;24.43;nan
22311;BME280;11323;49.610;11.016;2023-07-08T00:38:40;98389.56;;;24.44;nan
22311;BME280;11323;49.610;11.016;2023-07-08T00:43:49;98375.69;;;24.42;nan
22311;BME280;11323;49.610;11.016;2023-07-08T00:48:53;98374.50;;;24.38;nan
22311;BME280;11323;49.610;11.016;2023-07-08T00:53:55;98383.09;;;24.40;nan
22311;BME280;11323;49.610;11.016;2023-07-08T00:59:12;98371.69;;;24.33;nan
22311;BME280;11323;49.610;11.016;2023-07-08T01:04:19;98376.22;;;24.32;nan
22311;BME280;11323;49.610;11.016;2023-07-08T01:09:20;98376.00;;;24.34;nan
22311;BME280;11323;49.610;11.016;2023-07-08T01:14:21;98366.38;;;24.33;nan
22311;BME280;11323;49.610;11.016;2023-07-08T01:19:23;98368.81;;;24.34;nan
22311;BME280;11323;49.610;11.016;2023-07-08T01:24:36;98357.34;;;24.34;nan
22311;BME280;11323;49.610;11.016;2023-07-08T01:29:38;98363.72;;;24.33;nan
22311;BME280;11323;49.610;11.016;2023-07-08T01:34:39;98348.91;;;24.25;nan
22311;BME280;11323;49.610;11.016;2023-07-08T01:39:40;98370.66;;;24.34;nan
22311;BME280;11323;49.610;11.016;2023-07-08T01:44:40;98372.19;;;24.30;nan
22311;BME280;11323;49.610;11.016;2023-07-08T01:49:41;98366.84;;;24.30;nan
22311;BME280;11323;49.610;11.016;2023-07-08T01:54:43;98358.28;;;24.28;nan
22311;BME280;11323;49.610;11.016;2023-07-08T01:59:43;98360.94;;;24.28;nan
22311;BME280;11323;49.610;11.016;2023-07-08T02:04:44;98356.75;;;24.20;nan
22311;BME280;11323;49.610;11.016;2023-07-08T02:09:46;98365.66;;;24.26;nan
22311;BME280;11323;49.610;11.016;2023-07-08T02:14:47;98363.25;;;24.24;nan
22311;BME280;11323;49.610;11.016;2023-07-08T02:19:47;98368.56;;;24.24;nan
22311;BME280;11323;49.610;11.016;2023-07-08T02:24:48;98372.03;;;24.25;nan
22311;BME280;11323;49.610;11.016;2023-07-08T02:29:49;98372.03;;;24.25;nan
22311;BME280;11323;49.610;11.016;2023-07-08T02:34:50;98366.13;;;24.23;nan
22311;BME280;11323;49.610;11.016;2023-07-08T02:39:52;98371.91;;;24.19;nan
22311;BME280;11323;49.610;11.016;2023-07-08T02:44:52;98372.72;;;24.20;nan
22311;BME280;11323;49.610;11.016;2023-07-08T02:49:52;98361.81;;;24.10;nan
22311;BME280;11323;49.610;11.016;2023-07-08T02:54:54;98383.59;;;24.18;nan
22311;BME280;11323;49.610;11.016;2023-07-08T02:59:55;98364.22;;;24.11;nan
22311;BME280;11323;49.610;11.016;2023-07-08T03:04:55;98371.34;;;24.17;nan
22311;BME280;11323;49.610;11.016;2023-07-08T03:09:59;98368.53;;;24.12;nan
22311;BME280;11323;49.610;11.016;2023-07-08T03:14:59;98383.81;;;24.17;nan
22311;BME280;11323;49.610;11.016;2023-07-08T03:20:00;98388.59;;;24.15;nan
22311;BME280;11323;49.610;11.016;2023-07-08T03:25:00;98382.31;;;24.09;nan
22311;BME280;11323;49.610;11.016;2023-07-08T03:30:00;98392.03;;;24.15;nan
22311;BME280;11323;49.610;11.016;2023-07-08T03:35:01;98398.28;;;24.09;nan
22311;BME280;11323;49.610;11.016;2023-07-08T03:40:01;98408.47;;;24.12;nan
22311;BME280;11323;49.610;11.016;2023-07-08T03:45:03;98414.63;;;24.13;nan
22311;BME280;11323;49.610;11.016;2023-07-08T03:50:05;98417.47;;;24.11;nan
22311;BME280;11323;49.610;11.016;2023-07-08T03:55:10;98399.16;;;24.03;nan
22311;BME280;11323;49.610;11.016;2023-07-08T04:00:14;98421.19;;;24.10;nan
22311;BME280;11323;49.610;11.016;2023-07-08T04:05:17;98419.59;;;24.09;nan
22311;BME280;11323;49.610;11.016;2023-07-08T04:10:19;98422.44;;;24.08;nan
22311;BME280;11323;49.610;11.016;2023-07-08T04:15:20;98413.44;;;24.09;nan
22311;BME280;11323;49.610;11.016;2023-07-08T04:20:25;98414.34;;;24.02;nan
22311;BME280;11323;49.610;11.016;2023-07-08T04:25:26;98417.56;;;24.04;nan
22311;BME280;11323;49.610;11.016;2023-07-08T04:30:26;98411.69;;;24.02;nan
22311;BME280;11323;49.610;11.016;2023-07-08T04:35:26;98414.34;;;24.02;nan
22311;BME280;11323;49.610;11.016;2023-07-08T04:40:27;98431.72;;;24.05;nan
22311;BME280;11323;49.610;11.016;2023-07-08T04:45:27;98415.13;;;24.03;nan
22311;BME280;11323;49.610;11.016;2023-07-08T04:50:28;98416.31;;;24.07;nan
22311;BME280;11323;49.610;11.016;2023-07-08T04:55:28;98428.13;;;24.11;nan
22311;BME280;11323;49.610;11.016;2023-07-08T05:00:29;98407.41;;;24.01;nan
22311;BME280;11323;49.610;11.016;2023-07-08T05:05:29;98419.25;;;24.17;nan
22311;BME280;11323;49.610;11.016;2023-07-08T05:10:30;98405.78;;;24.12;nan
22311;BME280;11323;49.610;11.016;2023-07-08T05:15:30;98410.91;;;24.14;nan
22311;BME280;11323;49.610;11.016;2023-07-08T05:20:31;98432.13;;;24.20;nan
22311;BME280;11323;49.610;11.016;2023-07-08T05:25:33;98430.50;;;24.19;nan
22311;BME280;11323;49.610;11.016;2023-07-08T05:30:33;98424.13;;;24.20;nan
22311;BME280;11323;49.610;11.016;2023-07-08T05:35:34;98427.16;;;24.24;nan
22311;BME280;11323;49.610;11.016;2023-07-08T05:40:34;98429.13;;;24.29;nan
22311;BME280;11323;49.610;11.016;2023-07-08T05:45:35;98438.53;;;24.31;nan
22311;BME280;11323;49.610;11.016;2023-07-08T05:50:35;98426.59;;;24.34;nan
22311;BME280;11323;49.610;11.016;2023-07-08T05:55:36;98439.63;;;24.42;nan
22311;BME280;11323;49.610;11.016;2023-07-08T06:00:36;98441.22;;;24.43;nan
22311;BME280;11323;49.610;11.016;2023-07-08T06:05:37;98435.31;;;24.41;nan
22311;BME280;11323;49.610;11.016;2023-07-08T06:10:42;98437.31;;;24.46;nan
22311;BME280;11323;49.610;11.016;2023-07-08T06:15:44;98442.38;;;24.47;nan
22311;BME280;11323;49.610;11.016;2023-07-08T06:20:53;98436.97;;;24.24;nan
22311;BME280;11323;49.610;11.016;2023-07-08T06:25:54;98446.69;;;24.18;nan
22311;BME280;11323;49.610;11.016;2023-07-08T06:30:55;98439.97;;;24.15;nan
22311;BME280;11323;49.610;11.016;2023-07-08T06:35:55;98435.09;;;24.12;nan
22311;BME280;11323;49.610;11.016;2023-07-08T06:40:55;98424.44;;;24.12;nan
22311;BME280;11323;49.610;11.016;2023-07-08T06:45:56;98439.63;;;24.12;nan
22311;BME280;11323;49.610;11.016;2023-07-08T06:50:57;98429.63;;;24.07;nan
22311;BME280;11323;49.610;11.016;2023-07-08T06:55:58;98428.22;;;24.04;nan
22311;BME280;11323;49.610;11.016;2023-07-08T07:00:58;98428.44;;;24.03;nan
22311;BME280;11323;49.610;11.016;2023-07-08T07:05:58;98413.50;;;24.02;nan
22311;BME280;11323;49.610;11.016;2023-07-08T07:10:59;98410.25;;;24.00;nan
22311;BME280;11323;49.610;11.016;2023-07-08T07:15:59;98395.63;;;23.90;nan
22311;BME280;11323;49.610;11.016;2023-07-08T07:20:59;98404.56;;;23.96;nan
22311;BME280;11323;49.610;11.016;2023-07-08T07:26:00;98396.38;;;23.98;nan
22311;BME280;11323;49.610;11.016;2023-07-08T07:31:00;98397.19;;;23.98;nan
22311;BME280;11323;49.610;11.016;2023-07-08T07:36:01;98409.47;;;23.99;nan
22311;BME280;11323;49.610;11.016;2023-07-08T07:41:01;98403.78;;;23.96;nan
22311;BME280;11323;49.610;11.016;2023-07-08T07:46:06;98379.72;;;23.84;nan
22311;BME280;11323;49.610;11.016;2023-07-08T07:51:08;98407.84;;;23.98;nan
22311;BME280;11323;49.610;11.016;2023-07-08T07:56:10;98422.34;;;24.02;nan
22311;BME280;11323;49.610;11.016;2023-07-08T08:01:11;98408.19;;;24.02;nan
22311;BME280;11323;49.610;11.016;2023-07-08T08:06:13;98417.22;;;24.01;nan
22311;BME280;11323;49.610;11.016;2023-07-08T08:11:14;98403.31;;;23.99;nan
22311;BME280;11323;49.610;11.016;2023-07-08T08:16:14;98417.97;;;24.08;nan
22311;BME280;11323;49.610;11.016;2023-07-08T08:21:15;98419.00;;;24.07;nan
22311;BME280;11323;49.610;11.016;2023-07-08T08:26:15;98415.03;;;23.98;nan
22311;BME280;11323;49.610;11.016;2023-07-08T08:31:16;98422.09;;;24.04;nan
22311;BME280;11323;49.610;11.016;2023-07-08T08:36:16;98422.78;;;23.99;nan
22311;BME280;11323;49.610;11.016;2023-07-08T08:41:19;98432.16;;;24.02;nan
22311;BME280;11323;49.610;11.016;2023-07-08T08:46:34;98423.97;;;24.03;nan
22311;BME280;11323;49.610;11.016;2023-07-08T08:51:38;98423.56;;;24.00;nan
22311;BME280;11323;49.610;11.016;2023-07-08T09:01:42;98420.34;;;23.98;nan
22311;BME280;11323;49.610;11.016;2023-07-08T09:06:44;98412.91;;;24.00;nan
22311;BME280;11323;49.610;11.016;2023-07-08T09:17:10;98421.75;;;24.00;nan
22311;BME280;11323;49.610;11.016;2023-07-08T09:22:18;98410.50;;;23.98;nan
22311;BME280;11323;49.610;11.016;2023-07-08T09:27:20;98411.88;;;24.01;nan
22311;BME280;11323;49.610;11.016;2023-07-08T09:32:26;98411.88;;;24.01;nan
22311;BME280;11323;49.610;11.016;2023-07-08T09:37:32;98416.78;;;24.04;nan
22311;BME280;11323;49.610;11.016;2023-07-08T09:42:34;98410.84;;;24.02;nan
22311;BME280;11323;49.610;11.016;2023-07-08T09:47:37;98429.03;;;24.05;nan
22311;BME280;11323;49.610;11.016;2023-07-08T09:52:37;98415.03;;;23.98;nan
22311;BME280;11323;49.610;11.016;2023-07-08T09:57:38;98411.94;;;23.94;nan
22311;BME280;11323;49.610;11.016;2023-07-08T10:02:44;98424.91;;;24.09;nan
22311;BME280;11323;49.610;11.016;2023-07-08T10:07:46;98427.69;;;24.14;nan
22311;BME280;11323;49.610;11.016;2023-07-08T10:12:55;98423.41;;;24.13;nan
22311;BME280;11323;49.610;11.016;2023-07-08T10:17:55;98419.09;;;24.12;nan
22311;BME280;11323;49.610;11.016;2023-07-08T10:24:10;98419.47;;;24.16;nan
22311;BME280;11323;49.610;11.016;2023-07-08T10:28:47;98414.53;;;24.19;nan
22311;BME280;11323;49.610;11.016;2023-07-08T10:44:34;98417.56;;;24.35;nan
22311;BME280;11323;49.610;11.016;2023-07-08T10:55:07;98411.34;;;24.41;nan
22311;BME280;11323;49.610;11.016;2023-07-08T11:05:31;98396.59;;;24.39;nan
22311;BME280;11323;49.610;11.016;2023-07-08T11:10:54;98396.59;;;24.39;nan
22311;BME280;11323;49.610;11.016;2023-07-08T11:16:19;98388.41;;;24.40;nan
22311;BME280;11323;49.610;11.016;2023-07-08T11:21:41;98383.09;;;24.40;nan
22311;BME280;11323;49.610;11.016;2023-07-08T11:26:50;98375.31;;;24.39;nan
22311;BME280;11323;49.610;11.016;2023-07-08T11:31:53;98366.16;;;24.34;nan
22311;BME280;11323;49.610;11.016;2023-07-08T11:36:55;98370.34;;;24.42;nan
22311;BME280;11323;49.610;11.016;2023-07-08T11:42:16;98365.81;;;24.43;nan
22311;BME280;11323;49.610;11.016;2023-07-08T11:47:38;98359.69;;;24.42;nan
22311;BME280;11323;49.610;11.016;2023-07-08T11:52:59;98357.97;;;24.48;nan
22311;BME280;11323;49.610;11.016;2023-07-08T11:58:00;98355.41;;;24.53;nan
22311;BME280;11323;49.610;11.016;2023-07-08T12:03:18;98358.22;;;24.58;nan
22311;BME280;11323;49.610;11.016;2023-07-08T12:08:19;98346.97;;;24.56;nan
22311;BME280;11323;49.610;11.016;2023-07-08T12:13:23;98356.47;;;24.64;nan
22311;BME280;11323;49.610;11.016;2023-07-08T12:18:27;98336.78;;;24.65;nan
22311;BME280;11323;49.610;11.016;2023-07-08T12:23:28;98339.44;;;24.65;nan
22311;BME280;11323;49.610;11.016;2023-07-08T12:28:29;98342.38;;;24.75;nan
22311;BME280;11323;49.610;11.016;2023-07-08T12:33:33;98330.09;;;24.74;nan
22311;BME280;11323;49.610;11.016;2023-07-08T12:38:39;98337.38;;;24.79;nan
22311;BME280;11323;49.610;11.016;2023-07-08T12:43:40;98337.06;;;24.75;nan
22311;BME280;11323;49.610;11.016;2023-07-08T12:48:40;98334.38;;;24.75;nan
22311;BME280;11323;49.610;11.016;2023-07-08T12:53:42;98327.78;;;24.78;nan
22311;BME280;11323;49.610;11.016;2023-07-08T12:58:49;98332.06;;;24.79;nan
22311;BME280;11323;49.610;11.016;2023-07-08T13:03:53;98335.66;;;24.85;nan
22311;BME280;11323;49.610;11.016;2023-07-08T13:09:22;98336.22;;;24.87;nan
22311;BME280;11323;49.610;11.016;2023-07-08T13:14:24;98336.22;;;24.87;nan
22311;BME280;11323;49.610;11.016;2023-07-08T13:19:25;98335.19;;;24.88;nan
22311;BME280;11323;49.610;11.016;2023-07-08T13:24:30;98316.41;;;24.82;nan
22311;BME280;11323;49.610;11.016;2023-07-08T13:29:34;98340.03;;;24.91;nan
22311;BME280;11323;49.610;11.016;2023-07-08T13:34:35;98325.66;;;24.92;nan
22311;BME280;11323;49.610;11.016;2023-07-08T13:39:36;98331.81;;;24.92;nan
22311;BME280;11323;49.610;11.016;2023-07-08T13:44:44;98328.91;;;24.94;nan
22311;BME280;11323;49.610;11.016;2023-07-08T13:49:49;98327.88;;;24.95;nan
22311;BME280;11323;49.610;11.016;2023-07-08T13:54:54;98328.13;;;24.93;nan
22311;BME280;11323;49.610;11.016;2023-07-08T13:59:57;98330.53;;;24.95;nan
22311;BME280;11323;49.610;11.016;2023-07-08T14:04:58;98335.41;;;24.98;nan
22311;BME280;11323;49.610;11.016;2023-07-08T14:09:59;98317.78;;;24.97;nan
22311;BME280;11323;49.610;11.016;2023-07-08T14:14:59;98326.94;;;25.01;nan
22311;BME280;11323;49.610;11.016;2023-07-08T14:20:00;98329.38;;;25.03;nan
22311;BME280;11323;49.610;11.016;2023-07-08T14:25:06;98321.13;;;25.04;nan
22311;BME280;11323;49.610;11.016;2023-07-08T14:30:09;98315.22;;;25.02;nan
22311;BME280;11323;49.610;11.016;2023-07-08T14:35:22;98329.72;;;25.06;nan
22311;BME280;11323;49.610;11.016;2023-07-08T14:40:31;98318.47;;;25.04;nan
22311;BME280;11323;49.610;11.016;2023-07-08T14:45:39;98319.63;;;25.08;nan
22311;BME280;11323;49.610;11.016;2023-07-08T14:50:40;98315.69;;;25.11;nan
22311;BME280;11323;49.610;11.016;2023-07-08T14:55:42;98319.16;;;25.11;nan
22311;BME280;11323;49.610;11.016;2023-07-08T15:00:43;98318.69;;;25.14;nan
22311;BME280;11323;49.610;11.016;2023-07-08T15:05:43;98312.56;;;25.14;nan
22311;BME280;11323;49.610;11.016;2023-07-08T15:10:50;98305.13;;;25.16;nan
22311;BME280;11323;49.610;11.016;2023-07-08T15:15:51;98310.09;;;25.12;nan
22311;BME280;11323;49.610;11.016;2023-07-08T15:20:51;98301.06;;;25.13;nan
22311;BME280;11323;49.610;11.016;2023-07-08T15:25:52;98306.50;;;25.19;nan
22311;BME280;11323;49.610;11.016;2023-07-08T15:30:52;98298.38;;;25.25;nan
22311;BME280;11323;49.610;11.016;2023-07-08T15:35:53;98310.28;;;25.35;nan
22311;BME280;11323;49.610;11.016;2023-07-08T15:40:54;98292.00;;;25.26;nan
22311;BME280;11323;49.610;11.016;2023-07-08T15:45:54;98314.91;;;25.39;nan
22311;BME280;11323;49.610;11.016;2023-07-08T15:50:54;98301.81;;;25.38;nan
22311;BME280;11323;49.610;11.016;2023-07-08T15:55:55;98301.38;;;25.41;nan
22311;BME280;11323;49.610;11.016;2023-07-08T16:00:55;98289.91;;;25.40;nan
22311;BME280;11323;49.610;11.016;2023-07-08T16:05:57;98297.50;;;25.49;nan
22311;BME280;11323;49.610;11.016;2023-07-08T16:11:02;98289.19;;;25.45;nan
22311;BME280;11323;49.610;11.016;2023-07-08T16:16:04;98294.97;;;25.54;nan
22311;BME280;11323;49.610;11.016;2023-07-08T16:21:06;98294.47;;;25.57;nan
22311;BME280;11323;49.610;11.016;2023-07-08T16:26:08;98294.47;;;25.57;nan
22311;BME280;11323;49.610;11.016;2023-07-08T16:31:13;98300.47;;;25.64;nan
22311;BME280;11323;49.610;11.016;2023-07-08T16:36:20;98282.38;;;25.66;nan
22311;BME280;11323;49.610;11.016;2023-07-08T16:41:23;98290.94;;;25.68;nan
22311;BME280;11323;49.610;11.016;2023-07-08T16:46:25;98300.34;;;25.71;nan
22311;BME280;11323;49.610;11.016;2023-07-08T16:51:27;98295.31;;;25.74;nan
22311;BME280;11323;49.610;11.016;2023-07-08T16:56:28;98294.28;;;25.75;nan
22311;BME280;11323;49.610;11.016;2023-07-08T17:01:29;98290.63;;;25.82;nan
22311;BME280;11323;49.610;11.016;2023-07-08T17:06:30;98277.22;;;25.77;nan
22311;BME280;11323;49.610;11.016;2023-07-08T17:11:30;98294.31;;;25.93;nan
22311;BME280;11323;49.610;11.016;2023-07-08T17:16:33;98292.75;;;25.97;nan
22311;BME280;11323;49.610;11.016;2023-07-08T17:21:34;98283.22;;;26.01;nan
22311;BME280;11323;49.610;11.016;2023-07-08T17:26:35;98299.56;;;26.04;nan
22311;BME280;11323;49.610;11.016;2023-07-08T17:31:36;98287.25;;;26.03;nan
22311;BME280;11323;49.610;11.016;2023-07-08T17:36:37;98288.88;;;26.04;nan
22311;BME280;11323;49.610;11.016;2023-07-08T17:41:38;98297.03;;;26.10;nan
22311;BME280;11323;49.610;11.016;2023-07-08T17:46:39;98293.63;;;26.14;nan
22311;BME280;11323;49.610;11.016;2023-07-08T17:51:39;98298.25;;;26.19;nan
22311;BME280;11323;49.610;11.016;2023-07-08T17:56:42;98295.56;;;26.19;nan
22311;BME280;11323;49.610;11.016;2023-07-08T18:01:44;98283.75;;;26.15;nan
22311;BME280;11323;49.610;11.016;2023-07-08T18:06:45;98285.38;;;26.16;nan
22311;BME280;11323;49.610;11.016;2023-07-08T18:11:47;98293.94;;;26.18;nan
22311;BME280;11323;49.610;11.016;2023-07-08T18:16:48;98298.81;;;26.21;nan
22311;BME280;11323;49.610;11.016;2023-07-08T18:21:49;98300.91;;;26.19;nan
22311;BME280;11323;49.610;11.016;2023-07-08T18:26:50;98299.75;;;26.15;nan
22311;BME280;11323;49.610;11.016;2023-07-08T18:31:50;98319.94;;;26.23;nan
22311;BME280;11323;49.610;11.016;2023-07-08T18:36:51;98321.72;;;26.17;nan
22311;BME280;11323;49.610;11.016;2023-07-08T18:41:52;98327.94;;;26.23;nan
22311;BME280;11323;49.610;11.016;2023-07-08T18:46:52;98335.97;;;26.23;nan
22311;BME280;11323;49.610;11.016;2023-07-08T18:51:54;98333.50;;;26.04;nan
22311;BME280;11323;49.610;11.016;2023-07-08T18:56:54;98336.47;;;26.08;nan
22311;BME280;11323;49.610;11.016;2023-07-08T19:01:55;98336.63;;;26.01;nan
22311;BME280;11323;49.610;11.016;2023-07-08T19:06:56;98339.38;;;25.89;nan
22311;BME280;11323;49.610;11.016;2023-07-08T19:11:57;98349.94;;;25.84;nan
22311;BME280;11323;49.610;11.016;2023-07-08T19:16:58;98334.22;;;25.70;nan
22311;BME280;11323;49.610;11.016;2023-07-08T19:21:58;98342.91;;;25.78;nan
22311;BME280;11323;49.610;11.016;2023-07-08T19:27:01;98351.78;;;25.66;nan
22311;BME280;11323;49.610;11.016;2023-07-08T19:32:01;98343.06;;;25.59;nan
22311;BME280;11323;49.610;11.016;2023-07-08T19:37:02;98332.78;;;25.51;nan
22311;BME280;11323;49.610;11.016;2023-07-08T19:42:03;98336.16;;;25.46;nan
22311;BME280;11323;49.610;11.016;2023-07-08T19:47:03;98339.72;;;25.40;nan
22311;BME280;11323;49.610;11.016;2023-07-08T19:52:08;98337.22;;;25.33;nan
22311;BME280;11323;49.610;11.016;2023-07-08T19:57:12;98347.41;;;25.36;nan
22311;BME280;11323;49.610;11.016;2023-07-08T20:02:13;98353.22;;;25.33;nan
22311;BME280;11323;49.610;11.016;2023-07-08T20:07:14;98360.97;;;25.23;nan
22311;BME280;11323;49.610;11.016;2023-07-08T20:12:15;98366.81;;;25.20;nan
22311;BME280;11323;49.610;11.016;2023-07-08T20:17:15;98368.09;;;25.05;nan
22311;BME280;11323;49.610;11.016;2023-07-08T20:22:16;98381.19;;;24.83;nan
22311;BME280;11323;49.610;11.016;2023-07-08T20:27:18;98372.59;;;24.69;nan
22311;BME280;11323;49.610;11.016;2023-07-08T20:32:19;98382.09;;;24.65;nan
22311;BME280;11323;49.610;11.016;2023-07-08T20:37:20;98388.47;;;24.64;nan
22311;BME280;11323;49.610;11.016;2023-07-08T20:42:20;98392.94;;;24.51;nan
22311;BME280;11323;49.610;11.016;2023-07-08T20:47:21;98403.59;;;24.51;nan
22311;BME280;11323;49.610;11.016;2023-07-08T20:52:21;98402.91;;;24.56;nan
22311;BME280;11323;49.610;11.016;2023-07-08T20:57:21;98416.94;;;24.51;nan
22311;BME280;11323;49.610;11.016;2023-07-08T21:02:24;98399.25;;;24.27;nan
22311;BME280;11323;49.610;11.016;2023-07-08T21:07:25;98365.31;;;23.91;nan
22311;BME280;11323;49.610;11.016;2023-07-08T21:12:25;98409.22;;;24.31;nan
22311;BME280;11323;49.610;11.016;2023-07-08T21:17:28;98426.03;;;24.32;nan
22311;BME280;11323;49.610;11.016;2023-07-08T21:22:31;98413.94;;;24.17;nan
22311;BME280;11323;49.610;11.016;2023-07-08T21:27:32;98407.75;;;24.05;nan
22311;BME280;11323;49.610;11.016;2023-07-08T21:32:32;98422.81;;;24.11;nan
22311;BME280;11323;49.610;11.016;2023-07-08T21:37:33;98425.19;;;24.19;nan
22311;BME280;11323;49.610;11.016;2023-07-08T21:42:33;98413.16;;;23.98;nan
22311;BME280;11323;49.610;11.016;2023-07-08T21:47:33;98425.78;;;24.03;nan
22311;BME280;11323;49.610;11.016;2023-07-08T21:52:34;98426.38;;;24.05;nan
22311;BME280;11323;49.610;11.016;2023-07-08T21:57:34;98433.09;;;24.08;nan
22311;BME280;11323;49.610;11.016;2023-07-08T22:02:34;98437.34;;;23.97;nan
22311;BME280;11323;49.610;11.016;2023-07-08T22:07:35;98440.88;;;23.72;nan
22311;BME280;11323;49.610;11.016;2023-07-08T22:12:35;98439.63;;;23.74;nan
22311;BME280;11323;49.610;11.016;2023-07-08T22:17:37;98445.44;;;23.65;nan
22311;BME280;11323;49.610;11.016;2023-07-08T22:22:37;98438.97;;;23.60;nan
22311;BME280;11323;49.610;11.016;2023-07-08T22:27:38;98425.97;;;23.52;nan
22311;BME280;11323;49.610;11.016;2023-07-08T22:32:38;98445.56;;;23.58;nan
22311;BME280;11323;49.610;11.016;2023-07-08T22:37:38;98451.09;;;23.75;nan
22311;BME280;11323;49.610;11.016;2023-07-08T22:42:40;98450.56;;;23.85;nan
22311;BME280;11323;49.610;11.016;2023-07-08T22:47:42;98444.13;;;23.74;nan
22311;BME280;11323;49.610;11.016;2023-07-08T22:52:46;98450.78;;;23.65;nan
22311;BME280;11323;49.610;11.016;2023-07-08T22:57:51;98451.53;;;23.72;nan
22311;BME280;11323;49.610;11.016;2023-07-08T23:02:52;98441.75;;;23.66;nan
22311;BME280;11323;49.610;11.016;2023-07-08T23:07:53;98452.69;;;23.57;nan
22311;BME280;11323;49.610;11.016;2023-07-08T23:12:53;98453.91;;;23.62;nan
22311;BME280;11323;49.610;11.016;2023-07-08T23:17:53;98450.25;;;23.74;nan
22311;BME280;11323;49.610;11.016;2023-07-08T23:22:54;98439.09;;;23.84;nan
22311;BME280;11323;49.610;11.016;2023-07-08T23:27:54;98446.50;;;23.64;nan
22311;BME280;11323;49.610;11.016;2023-07-08T23:32:55;98457.56;;;23.42;nan
22311;BME280;11323;49.610;11.016;2023-07-08T23:37:55;98450.00;;;23.20;nan
22311;BME280;11323;49.610;11.016;2023-07-08T23:42:58;98468.06;;;23.11;nan
22311;BME280;11323;49.610;11.016;2023-07-08T23:47:58;98471.69;;;23.17;nan
22311;BME280;11323;49.610;11.016;2023-07-08T23:52:58;98473.91;;;23.20;nan
22311;BME280;11323;49.610;11.016;2023-07-08T23:58:00;98482.56;;;23.41;nan
